createdAt,value
2019-01-20T00:02:25.417Z,27.00
2019-01-20T00:04:52.000Z,29.98
2019-01-20T00:10:42.033Z,26.07
2019-01-20T00:13:08.811Z,26.10
2019-01-20T00:15:35.608Z,24.35
2019-01-20T00:18:02.881Z,22.60
2019-01-20T00:20:29.199Z,36.47
2019-01-20T00:22:55.668Z,21.45
2019-01-20T00:25:22.088Z,22.23
2019-01-20T00:27:51.720Z,27.67
2019-01-20T00:30:18.447Z,23.90
2019-01-20T00:32:44.974Z,22.70
2019-01-20T00:35:11.646Z,27.27
2019-01-20T00:37:37.905Z,26.20
2019-01-20T00:40:11.277Z,36.68
2019-01-20T00:42:37.742Z,35.08
2019-01-20T00:45:07.449Z,27.80
2019-01-20T00:47:34.007Z,48.10
2019-01-20T00:50:00.535Z,36.50
2019-01-20T00:56:02.432Z,31.47
2019-01-20T00:58:28.841Z,31.60
2019-01-20T01:00:55.268Z,34.13
2019-01-20T01:03:21.640Z,40.30
2019-01-20T01:05:48.167Z,35.83
2019-01-20T01:11:38.752Z,32.63
2019-01-20T01:14:05.353Z,39.80
2019-01-20T01:16:31.605Z,32.70
2019-01-20T01:18:58.116Z,49.93
2019-01-20T01:21:24.495Z,34.67
2019-01-20T01:23:50.834Z,45.80
2019-01-20T01:29:28.970Z,41.13
2019-01-20T01:35:30.876Z,44.67
2019-01-20T01:37:57.445Z,47.80
2019-01-20T01:40:23.916Z,35.27
2019-01-20T01:42:50.419Z,29.13
2019-01-20T01:45:18.411Z,42.83
2019-01-20T01:47:44.741Z,39.90
2019-01-20T01:50:12.304Z,42.23
2019-01-20T01:52:38.676Z,65.20
2019-01-20T01:55:07.242Z,47.50
2019-01-20T01:57:33.680Z,38.67
2019-01-20T02:00:00.196Z,64.57
2019-01-20T02:12:33.265Z,49.83
2019-01-20T02:14:59.813Z,44.33
2019-01-20T02:17:26.745Z,48.67
2019-01-20T02:19:53.187Z,47.67
2019-01-20T02:25:31.455Z,37.63
2019-01-20T02:27:58.736Z,43.78
2019-01-20T02:30:27.066Z,49.07
2019-01-20T02:32:54.079Z,34.33
2019-01-20T02:35:20.641Z,44.97
2019-01-20T02:37:47.158Z,45.30
2019-01-20T02:40:15.531Z,60.23
2019-01-20T02:42:42.064Z,46.60
2019-01-20T02:45:11.080Z,42.53
2019-01-20T02:47:37.459Z,40.57
2019-01-20T02:50:08.247Z,61.80
2019-01-20T02:52:34.870Z,46.95
2019-01-20T02:55:01.298Z,38.23
2019-01-20T02:57:27.989Z,47.10
2019-01-20T02:59:54.492Z,36.20
2019-01-20T03:02:21.023Z,45.67
2019-01-20T03:08:11.737Z,35.10
2019-01-20T03:10:38.058Z,37.57
2019-01-20T03:13:04.312Z,45.37
2019-01-20T03:15:30.829Z,35.77
2019-01-20T03:17:57.502Z,37.43
2019-01-20T03:20:26.819Z,31.63
2019-01-20T03:22:56.081Z,27.27
2019-01-20T03:28:48.632Z,36.43
2019-01-20T03:31:16.629Z,35.47
2019-01-20T03:33:43.211Z,33.78
2019-01-20T03:36:09.640Z,34.63
2019-01-20T03:38:35.923Z,39.53
2019-01-20T03:41:02.338Z,32.67
2019-01-20T03:43:29.260Z,36.50
2019-01-20T03:49:19.835Z,27.17
2019-01-20T03:51:46.208Z,29.72
2019-01-20T03:54:12.672Z,28.30
2019-01-20T03:56:39.273Z,26.97
2019-01-20T03:59:05.568Z,24.27
2019-01-20T04:01:32.171Z,28.77
2019-01-20T04:03:58.655Z,26.87
2019-01-20T04:06:29.669Z,31.73
2019-01-20T04:08:56.122Z,33.33
2019-01-20T04:11:22.609Z,30.55
2019-01-20T04:13:48.771Z,36.30
2019-01-20T04:16:15.254Z,31.27
2019-01-20T04:18:41.724Z,32.20
2019-01-20T04:21:08.077Z,29.13
2019-01-20T04:23:34.467Z,30.20
2019-01-20T04:26:00.940Z,29.90
2019-01-20T04:28:27.201Z,36.70
2019-01-20T04:30:53.630Z,40.00
2019-01-20T04:33:19.876Z,29.92
2019-01-20T04:35:46.260Z,37.93
2019-01-20T04:38:12.605Z,33.63
2019-01-20T04:40:38.843Z,40.47
2019-01-20T04:43:05.108Z,33.60
2019-01-20T04:45:31.568Z,36.60
2019-01-20T04:47:57.814Z,34.37
2019-01-20T04:50:24.374Z,43.70
2019-01-20T04:52:51.096Z,32.33
2019-01-20T04:55:17.720Z,35.30
2019-01-20T04:57:52.349Z,50.10
2019-01-20T05:00:24.085Z,37.60
2019-01-20T05:02:50.666Z,38.93
2019-01-20T05:05:17.827Z,33.17
2019-01-20T05:07:44.145Z,39.77
2019-01-20T05:10:13.030Z,40.23
2019-01-20T05:12:41.932Z,33.02
2019-01-20T05:15:11.441Z,41.15
2019-01-20T05:17:37.932Z,35.78
2019-01-20T05:20:06.573Z,43.28
2019-01-20T05:22:32.877Z,41.63
2019-01-20T05:25:04.009Z,32.93
2019-01-20T05:27:31.501Z,37.83
2019-01-20T05:29:58.740Z,35.13
2019-01-20T05:32:25.102Z,50.40
2019-01-20T05:34:51.377Z,55.13
2019-01-20T05:37:17.836Z,39.60
2019-01-20T05:39:44.239Z,49.87
2019-01-20T05:42:10.581Z,40.55
2019-01-20T05:44:37.009Z,52.10
2019-01-20T05:47:03.252Z,40.30
2019-01-20T05:49:29.873Z,50.50
2019-01-20T05:51:56.426Z,46.40
2019-01-20T05:54:22.965Z,72.03
2019-01-20T05:56:49.333Z,39.42
2019-01-20T05:59:15.700Z,51.65
2019-01-20T06:01:41.960Z,46.60
2019-01-20T06:04:08.235Z,44.03
2019-01-20T06:06:34.467Z,55.85
2019-01-20T06:09:00.815Z,48.63
2019-01-20T06:11:27.103Z,64.33
2019-01-20T06:13:53.457Z,51.87
2019-01-20T06:16:19.739Z,53.90
2019-01-20T06:18:46.039Z,49.13
2019-01-20T06:21:12.284Z,51.20
2019-01-20T06:27:02.402Z,50.47
2019-01-20T06:29:28.821Z,50.83
2019-01-20T06:31:55.372Z,46.10
2019-01-20T06:34:21.843Z,43.10
2019-01-20T06:36:48.938Z,53.03
2019-01-20T06:39:15.257Z,48.78
2019-01-20T06:41:41.615Z,55.05
2019-01-20T06:44:07.844Z,47.87
2019-01-20T06:46:34.285Z,48.20
2019-01-20T06:49:00.856Z,47.60
2019-01-20T06:51:27.941Z,49.87
2019-01-20T06:53:54.384Z,47.50
2019-01-20T06:56:20.663Z,42.08
2019-01-20T06:58:47.057Z,56.40
2019-01-20T07:01:13.380Z,49.83
2019-01-20T07:03:39.613Z,54.40
2019-01-20T07:06:06.048Z,50.70
2019-01-20T07:08:32.735Z,58.03
2019-01-20T07:10:59.454Z,45.40
2019-01-20T07:13:25.747Z,46.83
2019-01-20T07:15:52.256Z,44.53
2019-01-20T07:18:18.507Z,46.68
2019-01-20T07:20:44.830Z,42.97
2019-01-20T07:23:11.162Z,38.60
2019-01-20T07:25:37.411Z,50.07
2019-01-20T07:28:03.748Z,47.93
2019-01-20T07:30:30.069Z,51.57
2019-01-20T07:32:56.293Z,43.07
2019-01-20T07:35:22.672Z,46.63
2019-01-20T07:37:48.893Z,47.40
2019-01-20T07:40:18.246Z,53.15
2019-01-20T07:42:45.034Z,41.30
2019-01-20T07:45:13.091Z,46.00
2019-01-20T07:47:39.577Z,50.07
2019-01-20T07:50:15.757Z,44.03
2019-01-20T07:52:42.166Z,42.05
2019-01-20T07:55:09.122Z,48.00
2019-01-20T07:57:35.655Z,43.57
2019-01-20T08:03:26.789Z,36.90
2019-01-20T08:05:53.361Z,39.30
2019-01-20T08:08:19.591Z,42.50
2019-01-20T08:10:45.908Z,50.50
2019-01-20T08:13:12.270Z,49.20
2019-01-20T08:15:38.673Z,47.20
2019-01-20T08:18:05.264Z,47.93
2019-01-20T08:20:31.870Z,36.40
2019-01-20T08:22:58.498Z,43.80
2019-01-20T08:25:25.242Z,39.70
2019-01-20T08:27:51.489Z,39.60
2019-01-20T08:30:19.895Z,36.30
2019-01-20T08:32:46.379Z,40.03
2019-01-20T08:35:13.291Z,39.80
2019-01-20T08:37:40.272Z,41.80
2019-01-20T08:40:10.196Z,43.97
2019-01-20T08:42:37.030Z,47.33
2019-01-20T08:45:10.216Z,43.73
2019-01-20T08:47:37.970Z,44.05
2019-01-20T08:50:08.123Z,38.37
2019-01-20T08:52:34.745Z,41.20
2019-01-20T08:55:03.953Z,45.43
2019-01-20T08:57:30.608Z,43.27
2019-01-20T08:59:57.738Z,43.43
2019-01-20T09:02:24.670Z,44.83
2019-01-20T09:04:51.668Z,47.70
2019-01-20T09:07:18.063Z,40.33
2019-01-20T09:09:44.251Z,43.63
2019-01-20T09:12:10.468Z,40.93
2019-01-20T09:14:36.989Z,42.33
2019-01-20T09:17:03.677Z,46.27
2019-01-20T09:19:30.271Z,43.63
2019-01-20T09:21:56.612Z,41.47
2019-01-20T09:24:23.074Z,39.20
2019-01-20T09:26:49.439Z,42.73
2019-01-20T09:29:15.822Z,41.30
2019-01-20T09:31:42.376Z,38.10
2019-01-20T09:34:08.883Z,35.23
2019-01-20T09:36:35.165Z,37.47
2019-01-20T09:39:01.415Z,37.47
2019-01-20T09:41:27.893Z,39.50
2019-01-20T09:43:54.183Z,36.60
2019-01-20T09:46:20.609Z,41.90
2019-01-20T09:48:48.409Z,33.00
2019-01-20T09:51:14.837Z,41.70
2019-01-20T09:53:41.128Z,45.23
2019-01-20T09:56:07.537Z,44.27
2019-01-20T09:58:33.778Z,41.17
2019-01-20T10:01:00.046Z,43.53
2019-01-20T10:03:26.353Z,41.57
2019-01-20T10:05:52.636Z,35.33
2019-01-20T10:08:19.109Z,39.17
2019-01-20T10:10:45.355Z,37.43
2019-01-20T10:13:11.731Z,37.50
2019-01-20T10:15:38.127Z,37.40
2019-01-20T10:18:04.543Z,34.33
2019-01-20T10:20:32.119Z,32.73
2019-01-20T10:23:20.022Z,38.58
2019-01-20T10:26:06.029Z,33.37
2019-01-20T10:28:32.035Z,31.63
2019-01-20T10:30:58.081Z,35.67
2019-01-20T10:33:32.139Z,37.20
2019-01-20T10:36:00.657Z,33.20
2019-01-20T10:38:27.807Z,30.37
2019-01-20T10:41:00.337Z,30.77
2019-01-20T10:43:26.744Z,26.93
2019-01-20T10:45:53.162Z,36.83
2019-01-20T10:48:19.722Z,31.40
2019-01-20T10:50:46.740Z,29.87
2019-01-20T10:53:13.514Z,37.20
2019-01-20T10:55:39.883Z,33.67
2019-01-20T10:58:06.568Z,33.60
2019-01-20T11:00:36.460Z,34.33
2019-01-20T11:03:03.505Z,32.83
2019-01-20T11:05:30.913Z,35.07
2019-01-20T11:07:58.120Z,42.17
2019-01-20T11:10:24.442Z,37.73
2019-01-20T11:16:02.547Z,36.80
2019-01-20T11:18:29.013Z,40.63
2019-01-20T11:20:55.343Z,34.03
2019-01-20T11:23:23.252Z,36.63
2019-01-20T11:25:49.615Z,35.33
2019-01-20T11:28:15.912Z,37.57
2019-01-20T11:30:42.348Z,34.10
2019-01-20T11:33:08.758Z,30.73
2019-01-20T11:35:35.112Z,30.60
2019-01-20T11:38:07.960Z,28.13
2019-01-20T11:40:34.112Z,30.40
2019-01-20T11:43:00.826Z,32.03
2019-01-20T11:45:29.582Z,25.83
2019-01-20T11:47:56.677Z,29.93
2019-01-20T11:50:23.633Z,28.57
2019-01-20T11:52:50.103Z,31.90
2019-01-20T11:58:28.330Z,39.47
2019-01-20T12:00:54.906Z,37.63
2019-01-20T12:03:21.300Z,29.93
2019-01-20T12:05:48.004Z,30.33
2019-01-20T12:08:15.084Z,33.20
2019-01-20T12:10:41.669Z,35.03
2019-01-20T12:13:10.017Z,44.63
2019-01-20T12:15:36.475Z,34.90
2019-01-20T12:18:03.125Z,41.13
2019-01-20T12:20:29.442Z,37.53
2019-01-20T12:22:55.720Z,47.07
2019-01-20T12:25:22.170Z,37.97
2019-01-20T12:27:50.592Z,41.10
2019-01-20T12:30:27.504Z,40.93
2019-01-20T12:32:54.096Z,35.03
2019-01-20T12:35:20.584Z,40.77
2019-01-20T12:37:47.783Z,36.37
2019-01-20T12:40:23.563Z,33.13
2019-01-20T12:42:49.910Z,35.87
2019-01-20T12:45:16.404Z,34.53
2019-01-20T12:47:42.935Z,36.20
2019-01-20T12:50:12.729Z,32.23
2019-01-20T12:52:38.986Z,29.17
2019-01-20T12:55:06.460Z,31.37
2019-01-20T12:57:32.819Z,27.60
2019-01-20T12:59:59.082Z,33.27
2019-01-20T13:02:25.400Z,31.03
2019-01-20T13:04:56.335Z,26.47
2019-01-20T13:07:20.066Z,29.17
2019-01-20T13:09:46.686Z,26.00
2019-01-20T13:12:12.957Z,26.20
2019-01-20T13:14:39.356Z,25.60
2019-01-20T13:17:05.888Z,29.03
2019-01-20T13:19:32.244Z,23.70
2019-01-20T13:21:59.870Z,24.50
2019-01-20T13:24:26.245Z,35.73
2019-01-20T13:26:52.550Z,26.23
2019-01-20T13:29:19.728Z,36.73
2019-01-20T13:31:46.012Z,32.80
2019-01-20T13:34:12.258Z,29.87
2019-01-20T13:36:38.490Z,31.20
2019-01-20T13:42:39.987Z,34.27
2019-01-20T13:45:08.901Z,38.47
2019-01-20T13:47:35.251Z,38.53
2019-01-20T13:53:25.160Z,32.50
2019-01-20T13:55:51.401Z,37.90
2019-01-20T13:58:18.045Z,36.90
2019-01-20T14:00:44.821Z,38.33
2019-01-20T14:03:11.099Z,38.37
2019-01-20T14:05:37.595Z,41.93
2019-01-20T14:08:04.155Z,38.60
2019-01-20T14:13:42.483Z,31.27
2019-01-20T14:16:08.783Z,28.33
2019-01-20T14:18:35.285Z,27.77
2019-01-20T14:21:01.477Z,26.63
2019-01-20T14:23:27.738Z,24.97
2019-01-20T14:25:53.955Z,35.73
2019-01-20T14:28:20.126Z,30.77
2019-01-20T14:30:46.269Z,32.87
2019-01-20T14:36:35.930Z,37.73
2019-01-20T14:39:05.961Z,34.27
2019-01-20T14:45:10.202Z,40.27
2019-01-20T14:47:36.406Z,39.67
2019-01-20T14:50:05.857Z,40.47
2019-01-20T14:56:07.950Z,46.00
2019-01-20T14:58:34.333Z,44.70
2019-01-20T15:01:09.721Z,46.17
2019-01-20T15:06:47.452Z,34.23
2019-01-20T15:09:13.835Z,40.20
2019-01-20T15:11:40.026Z,35.67
2019-01-20T15:14:06.425Z,36.73
2019-01-20T15:16:32.661Z,42.87
2019-01-20T15:18:58.974Z,37.50
2019-01-20T15:24:38.448Z,41.20
2019-01-20T15:27:05.998Z,37.57
2019-01-20T15:29:32.367Z,40.03
2019-01-20T15:31:58.542Z,40.27
2019-01-20T15:34:25.120Z,36.93
2019-01-20T15:36:51.524Z,34.77
2019-01-20T15:39:21.835Z,35.15
2019-01-20T15:41:49.646Z,34.65
2019-01-20T15:44:15.948Z,30.20
2019-01-20T15:46:42.323Z,33.73
2019-01-20T15:49:08.598Z,38.57
2019-01-20T15:51:34.845Z,31.80
2019-01-20T15:54:01.331Z,32.70
2019-01-20T15:56:27.606Z,47.57
2019-01-20T15:58:53.889Z,42.10
2019-01-20T16:01:20.239Z,39.60
2019-01-20T16:03:46.471Z,44.50
2019-01-20T16:09:36.496Z,36.90
2019-01-20T16:12:03.528Z,34.75
2019-01-20T16:17:54.438Z,43.03
2019-01-20T16:20:21.218Z,36.60
2019-01-20T16:25:58.646Z,42.37
2019-01-20T16:28:25.006Z,44.50
2019-01-20T16:30:51.293Z,41.47
2019-01-20T16:33:17.751Z,43.77
2019-01-20T16:35:44.157Z,41.55
2019-01-20T16:38:10.584Z,50.78
2019-01-20T16:40:36.930Z,53.98
2019-01-20T16:43:03.702Z,49.95
2019-01-20T16:45:41.946Z,51.83
2019-01-20T16:53:56.046Z,49.53
2019-01-20T16:56:22.240Z,42.73
2019-01-20T16:58:51.443Z,42.97
2019-01-20T17:04:40.348Z,46.27
2019-01-20T17:07:06.573Z,48.67
2019-01-20T17:09:32.902Z,46.10
2019-01-20T17:12:01.247Z,56.30
2019-01-20T17:14:29.547Z,48.37
2019-01-20T17:16:55.776Z,47.40
2019-01-20T17:19:22.493Z,46.60
2019-01-20T17:25:24.485Z,48.80
2019-01-20T17:27:50.857Z,42.67
2019-01-20T17:30:20.163Z,43.73
2019-01-20T17:35:57.166Z,39.13
2019-01-20T17:38:23.616Z,41.47
2019-01-20T17:40:50.084Z,35.37
2019-01-20T17:46:40.618Z,36.57
2019-01-20T17:49:07.208Z,40.40
2019-01-20T17:51:36.730Z,34.10
2019-01-20T17:54:03.153Z,36.13
2019-01-20T17:56:29.454Z,37.73
2019-01-20T17:58:55.721Z,39.53
2019-01-20T18:01:21.908Z,31.40
2019-01-20T18:03:48.254Z,33.60
2019-01-20T18:06:14.655Z,34.07
2019-01-20T18:08:41.148Z,33.90
2019-01-20T18:11:07.464Z,33.28
2019-01-20T18:13:33.869Z,31.83
2019-01-20T18:19:23.502Z,38.73
2019-01-20T18:21:49.735Z,41.17
2019-01-20T18:24:15.995Z,31.67
2019-01-20T18:26:42.633Z,31.50
2019-01-20T18:29:08.949Z,35.00
2019-01-20T18:31:35.232Z,36.87
2019-01-20T18:34:01.471Z,29.20
2019-01-20T18:40:09.379Z,35.67
2019-01-20T18:42:35.740Z,34.27
2019-01-20T18:45:02.834Z,36.50
2019-01-20T18:50:52.836Z,38.13
2019-01-20T18:53:19.341Z,38.93
2019-01-20T18:55:45.878Z,40.63
2019-01-20T18:58:12.254Z,41.50
2019-01-20T19:00:41.958Z,35.60
2019-01-20T19:03:08.492Z,35.47
2019-01-20T19:05:34.771Z,45.10
2019-01-20T19:11:24.680Z,38.20
2019-01-20T19:13:51.204Z,34.93
2019-01-20T19:16:17.543Z,34.90
2019-01-20T19:22:18.709Z,32.95
2019-01-20T19:24:45.286Z,33.90
2019-01-20T19:27:11.683Z,37.53
2019-01-20T19:32:49.174Z,35.50
2019-01-20T19:38:38.737Z,46.90
2019-01-20T19:41:05.214Z,31.50
2019-01-20T19:43:31.477Z,32.70
2019-01-20T19:45:57.863Z,35.13
2019-01-20T19:48:24.168Z,37.35
2019-01-20T19:54:01.488Z,35.58
2019-01-20T19:56:28.313Z,37.53
2019-01-20T19:58:54.827Z,41.65
2019-01-20T20:01:21.392Z,35.10
2019-01-20T20:03:48.374Z,29.40
2019-01-20T20:06:14.873Z,29.50
2019-01-20T20:08:41.058Z,27.52
2019-01-20T20:11:07.317Z,26.30
2019-01-20T20:13:34.868Z,34.53
2019-01-20T20:16:01.497Z,31.03
2019-01-20T20:18:27.799Z,33.85
2019-01-20T20:20:54.168Z,38.78
2019-01-20T20:23:20.491Z,30.48
2019-01-20T20:25:47.051Z,38.95
2019-01-20T20:28:13.467Z,36.55
2019-01-20T20:30:39.832Z,38.25
2019-01-20T20:36:30.509Z,42.15
2019-01-20T20:38:57.029Z,45.67
2019-01-20T20:41:23.238Z,39.65
2019-01-20T20:43:50.095Z,43.30
2019-01-20T20:46:16.679Z,41.33
2019-01-20T20:48:43.688Z,41.03
2019-01-20T20:51:10.172Z,43.68
2019-01-20T20:57:00.942Z,35.80
2019-01-20T20:59:27.214Z,36.75
2019-01-20T21:01:53.690Z,34.77
2019-01-20T21:07:54.813Z,37.13
2019-01-20T21:10:21.113Z,29.97
2019-01-20T21:12:47.538Z,30.53
2019-01-20T21:15:15.270Z,38.60
2019-01-20T21:17:48.204Z,35.20
2019-01-20T21:20:13.755Z,31.60
2019-01-20T21:26:04.671Z,31.23
2019-01-20T21:28:30.967Z,37.73
2019-01-20T21:30:57.250Z,39.55
2019-01-20T21:33:23.816Z,35.30
2019-01-20T21:35:50.254Z,37.03
2019-01-20T21:38:16.609Z,27.48
2019-01-20T21:40:42.927Z,28.75
2019-01-20T21:43:09.350Z,34.75
2019-01-20T21:45:35.642Z,29.30
2019-01-20T21:48:01.853Z,33.40
2019-01-20T21:50:29.485Z,37.87
2019-01-20T21:52:55.919Z,34.50
2019-01-20T21:55:22.269Z,37.07
2019-01-20T21:57:48.561Z,37.30
2019-01-20T22:00:17.589Z,36.13
2019-01-20T22:02:43.925Z,35.07
2019-01-20T22:05:10.492Z,41.88
2019-01-20T22:11:00.037Z,33.60
2019-01-20T22:13:26.671Z,32.00
2019-01-20T22:15:53.192Z,34.92
2019-01-20T22:18:19.482Z,54.15
2019-01-20T22:20:45.961Z,47.57
2019-01-20T22:23:12.308Z,48.57
2019-01-20T22:25:38.915Z,42.83
2019-01-20T22:28:05.678Z,41.02
2019-01-20T22:30:32.135Z,44.77
2019-01-20T22:32:58.363Z,46.63
2019-01-20T22:35:24.591Z,41.63
2019-01-20T22:37:50.983Z,40.83
2019-01-20T22:43:40.856Z,34.78
2019-01-20T22:46:09.108Z,32.40
2019-01-20T22:48:35.648Z,33.63
2019-01-20T22:51:02.059Z,36.67
2019-01-20T22:53:28.431Z,37.78
2019-01-20T22:55:55.232Z,30.25
2019-01-20T22:58:21.607Z,32.73
2019-01-20T23:00:52.351Z,36.65
2019-01-20T23:03:18.820Z,34.63
2019-01-20T23:05:45.471Z,37.50
2019-01-20T23:08:11.712Z,34.78
2019-01-20T23:10:39.732Z,36.35
2019-01-20T23:13:06.869Z,36.28
2019-01-20T23:15:33.359Z,35.20
2019-01-20T23:17:59.919Z,35.65
2019-01-20T23:20:26.080Z,37.33
2019-01-20T23:22:52.437Z,35.03
2019-01-20T23:25:18.713Z,36.25
2019-01-20T23:27:45.267Z,39.80
2019-01-20T23:30:14.125Z,33.55
2019-01-20T23:32:41.499Z,42.75
2019-01-20T23:35:08.123Z,35.40
2019-01-20T23:37:34.456Z,30.48
2019-01-20T23:40:00.854Z,34.08
2019-01-20T23:42:27.247Z,34.53
2019-01-20T23:44:53.478Z,34.75
2019-01-20T23:47:19.821Z,31.65
2019-01-20T23:52:57.433Z,34.05
2019-01-20T23:55:23.826Z,34.33
2019-01-20T23:57:50.261Z,35.50
